createdAt,value
2017-08-19T08:41:12.884Z,1011.1
2017-08-19T08:43:09.061Z,1011.1
2017-08-19T08:44:21.158Z,1011.1
2017-08-19T08:45:33.585Z,1011.2
2017-08-19T08:46:48.943Z,1011.1
2017-08-19T08:48:01.475Z,1011.2
2017-08-19T08:49:14.050Z,1011.2
2017-08-19T08:50:26.212Z,1011.2
2017-08-19T08:51:38.662Z,1011.2
2017-08-19T08:52:51.145Z,1011.2
2017-08-19T08:54:03.288Z,1011.2
2017-08-19T08:55:15.893Z,1011.2
2017-08-19T08:57:07.831Z,1011.2
2017-08-19T08:59:36.179Z,1011.2
2017-08-19T09:00:48.896Z,1011.2
2017-08-19T09:05:48.399Z,1011.2
2017-08-19T09:07:01.039Z,1011.2
2017-08-19T09:08:13.573Z,1011.3
2017-08-19T09:09:25.855Z,1011.2
2017-08-19T09:10:38.165Z,1011.2
2017-08-19T09:11:50.858Z,1011.2
2017-08-19T09:13:03.240Z,1011.2
2017-08-19T09:14:15.640Z,1011.2
2017-08-19T09:15:27.764Z,1011.2
2017-08-19T09:16:43.155Z,1011.2
2017-08-19T09:17:55.999Z,1011.2
2017-08-19T09:19:08.579Z,1011.2
2017-08-19T09:20:20.892Z,1011.1
2017-08-19T09:21:33.287Z,1011.2
2017-08-19T09:22:45.804Z,1011.3
2017-08-19T09:23:57.948Z,1011.2
2017-08-19T09:25:10.158Z,1011.2
2017-08-19T09:26:25.795Z,1011.2
2017-08-19T09:28:18.660Z,1011.2
2017-08-19T09:29:31.324Z,1011.2
2017-08-19T09:30:43.729Z,1011.3
2017-08-19T09:31:55.835Z,1011.2
2017-08-19T09:33:07.923Z,1011.2
2017-08-19T09:34:20.423Z,1011.3
2017-08-19T09:35:32.622Z,1011.1
2017-08-19T09:36:48.578Z,1011.2
2017-08-19T09:38:01.163Z,1011.2
2017-08-19T09:39:13.484Z,1011.2
2017-08-19T09:40:25.565Z,1011.2
2017-08-19T09:41:37.824Z,1011.2
2017-08-19T09:42:50.383Z,1011.2
2017-08-19T09:44:03.142Z,1011.2
2017-08-19T09:45:15.552Z,1011.2
2017-08-19T09:46:31.703Z,1011.3
2017-08-19T09:47:43.990Z,1011.3
2017-08-19T09:48:56.393Z,1011.3
2017-08-19T09:50:08.975Z,1011.3
2017-08-19T09:51:21.140Z,1011.4
2017-08-19T09:52:33.375Z,1011.4
2017-08-19T09:53:45.602Z,1011.4
2017-08-19T09:54:58.154Z,1011.4
2017-08-19T09:56:13.887Z,1011.4
2017-08-19T09:57:26.327Z,1011.6
2017-08-19T09:58:38.756Z,1011.5
2017-08-19T09:59:51.277Z,1011.6
2017-08-19T10:01:03.545Z,1011.6
2017-08-19T10:02:15.911Z,1011.6
2017-08-19T10:03:27.989Z,1011.5
2017-08-19T10:04:40.612Z,1011.6
2017-08-19T10:05:52.865Z,1011.6
2017-08-19T10:07:05.367Z,1011.6
2017-08-19T10:08:17.835Z,1011.6
2017-08-19T10:09:30.340Z,1011.7
2017-08-19T10:10:42.396Z,1011.6
2017-08-19T10:11:54.560Z,1011.7
2017-08-19T10:13:06.830Z,1011.7
2017-08-19T10:14:19.356Z,1011.6
2017-08-19T10:15:31.543Z,1011.7
2017-08-19T10:16:47.464Z,1011.7
2017-08-19T10:17:59.515Z,1011.8
2017-08-19T10:19:11.961Z,1011.7
2017-08-19T10:20:24.149Z,1011.7
2017-08-19T10:21:36.665Z,1011.7
2017-08-19T10:22:48.799Z,1011.7
2017-08-19T10:24:00.952Z,1011.8
2017-08-19T10:25:13.334Z,1011.8
2017-08-19T10:26:29.474Z,1011.8
2017-08-19T10:27:41.870Z,1011.8
2017-08-19T10:28:54.067Z,1011.7
2017-08-19T10:30:06.637Z,1011.8
2017-08-19T10:31:19.065Z,1011.7
2017-08-19T10:32:31.456Z,1011.7
2017-08-19T10:33:43.657Z,1011.7
2017-08-19T10:34:55.947Z,1011.7
2017-08-19T10:36:11.490Z,1011.7
2017-08-19T10:37:24.010Z,1011.7
2017-08-19T10:38:36.706Z,1011.7
2017-08-19T10:39:49.077Z,1011.8
2017-08-19T10:41:01.173Z,1011.7
2017-08-19T10:42:13.822Z,1011.8
2017-08-19T10:43:26.340Z,1011.7
2017-08-19T10:44:38.645Z,1011.8
2017-08-19T10:45:51.180Z,1011.7
2017-08-19T10:47:03.627Z,1011.7
2017-08-19T10:48:16.224Z,1011.7
2017-08-19T10:49:28.859Z,1011.8
2017-08-19T10:50:41.085Z,1011.7
2017-08-19T10:51:53.298Z,1011.7
2017-08-19T10:53:05.428Z,1011.7
2017-08-19T10:54:17.654Z,1011.8
2017-08-19T10:55:30.279Z,1011.8
2017-08-19T10:56:45.838Z,1011.7
2017-08-19T10:57:58.169Z,1011.7
2017-08-19T10:59:10.462Z,1011.8
2017-08-19T11:00:22.659Z,1011.7
2017-08-19T11:01:35.128Z,1011.8
2017-08-19T11:02:47.332Z,1011.8
2017-08-19T11:03:59.909Z,1011.8
2017-08-19T11:05:12.355Z,1011.7
2017-08-19T11:06:28.076Z,1011.7
2017-08-19T11:07:40.750Z,1011.8
2017-08-19T11:08:52.923Z,1011.7
2017-08-19T11:10:05.348Z,1011.8
2017-08-19T11:11:17.869Z,1011.7
2017-08-19T11:12:30.414Z,1011.8
2017-08-19T11:13:42.709Z,1011.8
2017-08-19T11:14:55.172Z,1011.8
2017-08-19T11:16:10.917Z,1011.8
2017-08-19T11:17:23.204Z,1011.8
2017-08-19T11:18:35.279Z,1011.8
2017-08-19T11:19:47.376Z,1011.8
2017-08-19T11:20:59.906Z,1011.8
2017-08-19T11:22:54.225Z,1011.8
2017-08-19T11:24:06.705Z,1011.8
2017-08-19T11:25:19.148Z,1011.8
2017-08-19T11:26:35.218Z,1011.8
2017-08-19T11:27:47.619Z,1011.9
2017-08-19T11:29:00.030Z,1011.9
2017-08-19T11:30:12.716Z,1011.9
2017-08-19T11:31:25.000Z,1012.0
2017-08-19T11:32:37.188Z,1012.0
2017-08-19T11:33:49.737Z,1012.0
2017-08-19T11:35:01.985Z,1011.9
2017-08-19T11:36:17.607Z,1012.0
2017-08-19T11:37:30.117Z,1012.0
2017-08-19T11:38:42.608Z,1012.0
2017-08-19T11:39:54.894Z,1012.0
2017-08-19T11:41:07.359Z,1012.0
2017-08-19T11:42:19.647Z,1012.0
2017-08-19T11:43:31.788Z,1012.0
2017-08-19T11:44:43.973Z,1011.9
2017-08-19T11:45:56.463Z,1012.0
2017-08-19T11:47:08.895Z,1012.0
2017-08-19T11:48:21.051Z,1012.0
2017-08-19T11:49:33.516Z,1012.1
2017-08-19T11:50:46.208Z,1012.0
2017-08-19T11:51:58.874Z,1012.0
2017-08-19T11:53:11.327Z,1012.0
2017-08-19T11:54:24.045Z,1012.0
2017-08-19T11:55:36.868Z,1012.0
2017-08-19T11:56:53.024Z,1012.0
2017-08-19T11:58:05.839Z,1011.9
2017-08-19T11:59:18.362Z,1012.0
2017-08-19T12:00:31.845Z,1012.0
2017-08-19T12:01:44.282Z,1012.0
2017-08-19T12:02:56.683Z,1012.0
2017-08-19T12:04:09.002Z,1012.0
2017-08-19T12:05:21.735Z,1012.0
2017-08-19T12:06:37.806Z,1012.0
2017-08-19T12:07:49.912Z,1012.0
2017-08-19T12:09:02.654Z,1012.0
2017-08-19T12:10:15.484Z,1011.9
2017-08-19T12:11:28.253Z,1012.0
2017-08-19T12:13:21.914Z,1012.0
2017-08-19T12:14:34.497Z,1012.0
2017-08-19T12:15:47.334Z,1011.9
2017-08-19T12:17:01.416Z,1012.0
2017-08-19T12:18:13.880Z,1012.0
2017-08-19T12:19:26.587Z,1012.0
2017-08-19T12:20:39.374Z,1012.1
2017-08-19T12:21:51.825Z,1012.2
2017-08-19T12:23:04.038Z,1012.1
2017-08-19T12:25:38.174Z,1012.2
2017-08-19T12:26:56.818Z,1012.3
2017-08-19T12:29:25.386Z,1012.2
2017-08-19T12:30:38.527Z,1012.2
2017-08-19T12:32:32.406Z,1012.2
2017-08-19T12:36:18.259Z,1012.2
2017-08-19T12:37:31.352Z,1012.2
2017-08-19T12:45:45.693Z,1012.2
2017-08-19T12:47:04.055Z,1012.4
2017-08-19T12:48:17.303Z,1012.3
2017-08-19T12:49:29.335Z,1012.3
2017-08-19T12:50:41.483Z,1012.2
2017-08-19T12:51:53.516Z,1012.3
2017-08-19T12:53:05.920Z,1012.3
2017-08-19T12:54:18.450Z,1012.3
2017-08-19T12:55:32.189Z,1012.3
2017-08-19T12:56:47.751Z,1012.3
2017-08-19T12:57:59.738Z,1012.3
2017-08-19T12:59:12.259Z,1012.3
2017-08-19T13:00:25.200Z,1012.3
2017-08-19T13:01:38.008Z,1012.3
2017-08-19T13:02:50.562Z,1012.3
2017-08-19T13:04:03.421Z,1012.3
2017-08-19T13:05:16.028Z,1012.3
2017-08-19T13:06:33.060Z,1012.3
2017-08-19T13:07:45.550Z,1012.3
2017-08-19T13:08:58.047Z,1012.3
2017-08-19T13:10:10.623Z,1012.4
2017-08-19T13:11:23.208Z,1012.4
2017-08-19T13:12:35.351Z,1012.2
2017-08-19T13:13:48.185Z,1012.3
2017-08-19T13:15:00.966Z,1012.3
2017-08-19T13:16:16.546Z,1012.4
2017-08-19T13:17:29.311Z,1012.3
2017-08-19T13:18:41.759Z,1012.4
2017-08-19T13:19:54.548Z,1012.5
2017-08-19T13:22:22.947Z,1012.4
2017-08-19T13:23:35.640Z,1012.4
2017-08-19T13:24:48.231Z,1012.3
2017-08-19T13:26:00.751Z,1012.4
2017-08-19T13:27:13.685Z,1012.4
2017-08-19T13:28:26.185Z,1012.4
2017-08-19T13:29:38.438Z,1012.4
2017-08-19T13:30:51.244Z,1012.4
2017-08-19T13:32:04.184Z,1012.5
2017-08-19T13:33:16.952Z,1012.5
2017-08-19T13:34:29.189Z,1012.5
2017-08-19T13:35:41.773Z,1012.6
2017-08-19T13:36:57.890Z,1012.6
2017-08-19T13:38:10.723Z,1012.6
2017-08-19T13:39:23.130Z,1012.5
2017-08-19T13:40:35.316Z,1012.6
2017-08-19T13:41:48.118Z,1012.6
2017-08-19T13:43:01.974Z,1012.5
2017-08-19T13:44:14.497Z,1012.6
2017-08-19T13:45:26.937Z,1012.6
2017-08-19T13:46:42.976Z,1012.7
2017-08-19T13:47:55.811Z,1012.7
2017-08-19T13:50:24.362Z,1012.6
2017-08-19T13:51:37.681Z,1012.5
2017-08-19T13:52:50.609Z,1012.6
2017-08-19T13:54:03.424Z,1012.6
2017-08-19T13:55:15.907Z,1012.6
2017-08-19T13:56:31.847Z,1012.6
2017-08-19T13:57:44.242Z,1012.6
2017-08-19T13:58:56.685Z,1012.7
2017-08-19T14:00:08.733Z,1012.7
2017-08-19T14:01:20.804Z,1012.6
2017-08-19T14:02:33.248Z,1012.8
2017-08-19T14:03:45.316Z,1012.7
2017-08-19T14:04:57.383Z,1012.7
2017-08-19T14:06:13.010Z,1012.8
2017-08-19T14:07:25.461Z,1012.8
2017-08-19T14:08:37.948Z,1012.7
2017-08-19T14:09:50.390Z,1012.9
2017-08-19T14:11:02.499Z,1012.8
2017-08-19T14:12:14.948Z,1012.9
2017-08-19T14:13:27.081Z,1012.8
2017-08-19T14:14:39.874Z,1012.7
2017-08-19T14:15:52.399Z,1012.8
2017-08-19T14:17:04.461Z,1012.9
2017-08-19T14:18:16.776Z,1012.8
2017-08-19T14:19:29.160Z,1012.8
2017-08-19T14:20:41.238Z,1012.9
2017-08-19T14:21:53.364Z,1012.9
2017-08-19T14:23:05.665Z,1012.9
2017-08-19T14:24:17.758Z,1012.9
2017-08-19T14:25:30.382Z,1012.9
2017-08-19T14:26:46.615Z,1012.9
2017-08-19T14:27:58.697Z,1012.9
2017-08-19T14:29:11.097Z,1012.9
2017-08-19T14:30:24.181Z,1012.9
2017-08-19T14:31:36.882Z,1013.0
2017-08-19T14:32:49.674Z,1012.9
2017-08-19T14:34:02.826Z,1013.0
2017-08-19T14:35:15.867Z,1013.0
2017-08-19T14:36:32.363Z,1013.0
2017-08-19T14:37:45.175Z,1012.9
2017-08-19T14:38:58.251Z,1012.9
2017-08-19T14:40:11.380Z,1012.9
2017-08-19T14:41:24.352Z,1012.9
2017-08-19T14:42:37.521Z,1012.9
2017-08-19T14:43:50.460Z,1012.9
2017-08-19T14:45:03.663Z,1013.0
2017-08-19T14:46:20.192Z,1013.0
2017-08-19T14:47:35.878Z,1013.2
2017-08-19T14:48:48.933Z,1013.1
2017-08-19T14:50:01.833Z,1013.1
2017-08-19T14:51:14.959Z,1013.2
2017-08-19T14:52:28.122Z,1013.1
2017-08-19T14:53:42.527Z,1013.3
2017-08-19T14:54:56.383Z,1013.3
2017-08-19T14:56:48.275Z,1013.3
2017-08-19T14:58:02.486Z,1013.2
2017-08-19T14:59:15.531Z,1013.2
2017-08-19T15:00:27.669Z,1013.3
2017-08-19T15:01:40.483Z,1013.3
2017-08-19T15:02:53.189Z,1013.3
2017-08-19T15:04:05.699Z,1013.4
2017-08-19T15:05:18.086Z,1013.5
2017-08-19T15:06:33.980Z,1013.4
2017-08-19T15:07:46.414Z,1013.3
2017-08-19T15:08:27.644Z,1013.3
2017-08-19T15:09:40.203Z,1013.2
2017-08-19T15:10:52.253Z,1013.3
2017-08-19T15:12:04.747Z,1013.3
2017-08-19T15:13:17.312Z,1013.3
2017-08-19T15:14:29.945Z,1013.4
2017-08-19T15:15:42.342Z,1013.3
2017-08-19T15:16:58.431Z,1013.3
2017-08-19T15:18:10.907Z,1013.3
2017-08-19T15:19:22.985Z,1013.4
2017-08-19T15:20:35.438Z,1013.3
2017-08-19T15:21:47.789Z,1013.4
2017-08-19T15:22:59.844Z,1013.4
2017-08-19T15:24:11.936Z,1013.3
2017-08-19T15:25:24.005Z,1013.3
2017-08-19T15:26:39.701Z,1013.3
2017-08-19T15:27:52.207Z,1013.4
2017-08-19T15:29:04.296Z,1013.3
2017-08-19T15:30:16.429Z,1013.4
2017-08-19T15:31:28.439Z,1013.4
2017-08-19T15:32:41.948Z,1013.3
2017-08-19T15:33:54.056Z,1013.3
2017-08-19T15:35:06.592Z,1013.3
2017-08-19T15:36:22.104Z,1013.4
2017-08-19T15:37:34.267Z,1013.4
2017-08-19T15:38:46.374Z,1013.3
2017-08-19T15:39:58.728Z,1013.4
2017-08-19T15:41:11.402Z,1013.4
2017-08-19T15:42:23.112Z,1013.5
2017-08-19T15:43:35.686Z,1013.4
2017-08-19T15:47:03.584Z,1013.4
2017-08-19T15:48:16.107Z,1013.4
2017-08-19T15:49:28.451Z,1013.5
2017-08-19T15:50:40.818Z,1013.5
2017-08-19T15:51:52.949Z,1013.4
2017-08-19T15:53:05.483Z,1013.5
2017-08-19T15:54:17.954Z,1013.6
2017-08-19T15:55:30.092Z,1013.6
2017-08-19T15:56:45.663Z,1013.7
2017-08-19T15:57:57.721Z,1013.6
2017-08-19T15:59:09.854Z,1013.6
2017-08-19T16:00:22.386Z,1013.5
2017-08-19T16:01:34.516Z,1013.4
2017-08-19T16:02:47.010Z,1013.4
2017-08-19T16:03:59.395Z,1013.4
2017-08-19T16:05:11.402Z,1013.5
2017-08-19T16:06:27.759Z,1013.6
2017-08-19T16:07:39.888Z,1013.5
2017-08-19T16:08:52.059Z,1013.4
2017-08-19T16:10:04.213Z,1013.5
2017-08-19T16:11:16.325Z,1013.4
2017-08-19T16:12:28.525Z,1013.4
2017-08-19T16:13:40.958Z,1013.4
2017-08-19T16:14:53.207Z,1013.4
2017-08-19T16:16:43.344Z,1013.5
2017-08-19T16:17:55.670Z,1013.5
2017-08-19T16:19:08.290Z,1013.4
2017-08-19T16:20:18.814Z,1013.4
2017-08-19T16:21:31.250Z,1013.5
2017-08-19T16:22:43.407Z,1013.5
2017-08-19T16:23:55.655Z,1013.5
2017-08-19T16:25:06.796Z,1013.4
2017-08-19T16:57:19.233Z,1013.5
2017-08-19T16:59:50.084Z,1013.6
2017-08-19T17:01:05.126Z,1013.5
2017-08-19T17:25:07.887Z,1013.6
2017-08-19T17:28:57.247Z,1013.6
2017-08-19T17:33:59.281Z,1013.7
2017-08-19T17:35:12.754Z,1013.7
2017-08-19T17:36:29.646Z,1013.7
2017-08-19T17:40:16.067Z,1013.7
2017-08-19T17:41:28.379Z,1013.7
2017-08-19T17:43:36.829Z,1013.8
2017-08-19T17:44:49.481Z,1013.7
2017-08-19T17:46:02.094Z,1013.7
2017-08-19T17:47:14.541Z,1013.7
2017-08-19T17:48:27.595Z,1013.8
2017-08-19T17:49:40.250Z,1013.8
2017-08-19T17:50:52.419Z,1013.8
2017-08-19T17:52:04.782Z,1013.9
2017-08-19T17:53:16.969Z,1013.9
2017-08-19T17:54:29.712Z,1013.8
2017-08-19T17:55:42.329Z,1013.8
2017-08-19T17:56:59.130Z,1013.8
2017-08-19T17:58:11.379Z,1013.9
2017-08-19T17:59:23.984Z,1013.8
2017-08-19T18:00:36.546Z,1013.8
2017-08-19T18:01:49.747Z,1013.8
